Time;durP1;ratioP1;P1;durP2;ratioP2;P2;SDS_P1;SDS_P2;PMS_P1;PMS_P2;Temp;Humidity;BMP_temperature;BMP_pressure;BME280_temperature;BME280_humidity;BME280_pressure;Samples;Min_cycle;Max_cycle;Signal;HPM_P1;HPM_P2
2022/11/15 00:00:30;;;;;;;77.97;39.58;;;10.20;99.90;;;;;;5074414;28;20039;-68
2022/11/15 00:03:15;;;;;;;73.05;38.03;;;10.30;99.90;;;;;;5074303;28;20036;-69
2022/11/15 00:06:04;;;;;;;65.05;36.28;;;10.30;99.90;;;;;;5074079;28;20120;-71
2022/11/15 00:08:48;;;;;;;67.90;35.35;;;10.40;99.90;;;;;;5074113;28;20039;-68
2022/11/15 00:11:32;;;;;;;68.25;34.38;;;10.50;99.90;;;;;;5074152;28;20090;-69
2022/11/15 00:14:16;;;;;;;61.25;33.20;;;10.60;99.90;;;;;;5073968;28;20554;-68
2022/11/15 00:17:01;;;;;;;57.00;32.05;;;10.70;99.90;;;;;;5073672;28;20044;-68
2022/11/15 00:19:45;;;;;;;53.45;31.63;;;10.90;99.90;;;;;;5073572;28;20645;-69
2022/11/15 00:22:33;;;;;;;57.65;31.20;;;11.00;99.90;;;;;;5073993;28;20036;-69
2022/11/15 00:25:17;;;;;;;50.03;29.60;;;11.10;99.90;;;;;;5073555;28;20039;-68
2022/11/15 00:28:02;;;;;;;51.33;29.30;;;11.00;99.90;;;;;;5073986;28;20040;-69
2022/11/15 00:30:46;;;;;;;48.72;29.17;;;11.10;99.90;;;;;;5072651;28;20071;-68
2022/11/15 00:33:31;;;;;;;49.65;29.55;;;11.20;99.90;;;;;;5073295;28;20050;-68
2022/11/15 00:36:15;;;;;;;46.47;27.27;;;11.20;99.90;;;;;;5073586;28;20105;-68
2022/11/15 00:39:00;;;;;;;45.25;26.08;;;11.10;99.90;;;;;;5073786;28;20044;-69
2022/11/15 00:41:44;;;;;;;42.13;25.70;;;11.20;99.90;;;;;;5073377;28;20131;-68
2022/11/15 00:44:28;;;;;;;38.67;24.77;;;11.30;99.90;;;;;;5073825;28;20032;-68
2022/11/15 00:47:13;;;;;;;33.10;22.60;;;11.40;99.90;;;;;;5072660;28;20449;-68
2022/11/15 00:49:58;;;;;;;35.03;23.90;;;11.50;99.90;;;;;;5073645;28;20125;-71
2022/11/15 00:52:42;;;;;;;38.08;24.17;;;11.40;99.90;;;;;;5073095;28;20102;-69
2022/11/15 00:55:26;;;;;;;41.88;24.33;;;11.50;99.90;;;;;;5072370;28;20056;-68
2022/11/15 00:58:11;;;;;;;37.35;23.33;;;11.70;99.90;;;;;;5073297;28;20078;-71
2022/11/15 01:00:55;;;;;;;33.72;21.77;;;11.80;99.90;;;;;;5072878;28;20036;-71
2022/11/15 01:03:40;;;;;;;41.75;23.73;;;11.70;99.90;;;;;;5073110;28;20074;-69
2022/11/15 01:06:24;;;;;;;33.85;21.10;;;11.80;99.90;;;;;;5073054;28;20070;-70
2022/11/15 01:09:09;;;;;;;31.75;20.95;;;11.80;99.90;;;;;;5073352;28;20447;-68
2022/11/15 01:11:53;;;;;;;31.90;21.10;;;11.70;99.90;;;;;;5073145;28;20051;-68
2022/11/15 01:14:37;;;;;;;32.00;20.05;;;11.70;99.90;;;;;;5071452;28;20047;-68
2022/11/15 01:17:21;;;;;;;29.17;20.17;;;11.50;99.90;;;;;;5073264;28;20044;-71
2022/11/15 01:20:05;;;;;;;31.10;21.27;;;11.50;99.90;;;;;;5072990;28;20116;-71
2022/11/15 01:22:49;;;;;;;35.25;22.77;;;11.50;99.90;;;;;;5072765;28;20397;-68
2022/11/15 01:25:33;;;;;;;36.65;22.58;;;11.50;99.90;;;;;;5072812;28;20120;-71
2022/11/15 01:28:17;;;;;;;35.13;22.13;;;11.70;99.90;;;;;;5072965;28;20044;-72
2022/11/15 01:31:04;;;;;;;34.40;21.70;;;11.70;99.90;;;;;;5072545;28;20036;-71
2022/11/15 01:33:48;;;;;;;35.10;23.17;;;11.90;99.90;;;;;;5072585;28;20051;-71
2022/11/15 01:36:33;;;;;;;34.05;21.70;;;11.90;99.90;;;;;;5071099;28;20042;-71
2022/11/15 01:39:18;;;;;;;37.63;21.77;;;11.90;99.90;;;;;;5073129;28;20576;-71
2022/11/15 01:42:03;;;;;;;38.15;22.67;;;11.90;99.90;;;;;;5072591;28;20043;-71
2022/11/15 01:44:49;;;;;;;31.33;20.98;;;11.80;99.90;;;;;;5072227;28;20035;-71
2022/11/15 01:47:43;;;;;;;30.77;20.30;;;11.80;99.90;;;;;;5072548;28;20067;-70
2022/11/15 01:50:31;;;;;;;35.85;21.80;;;11.80;99.90;;;;;;5071168;28;20128;-71
2022/11/15 01:53:15;;;;;;;29.30;20.48;;;11.80;99.90;;;;;;5072110;28;20048;-69
2022/11/15 01:56:03;;;;;;;29.63;20.63;;;11.80;99.90;;;;;;5072701;28;20033;-71
2022/11/15 01:58:48;;;;;;;32.35;19.77;;;11.90;99.90;;;;;;5072411;28;20046;-68
2022/11/15 02:01:33;;;;;;;30.95;19.58;;;11.90;99.90;;;;;;5072541;28;20078;-69
2022/11/15 02:04:25;;;;;;;27.17;18.65;;;11.90;99.90;;;;;;5072370;28;20048;-68
2022/11/15 02:07:12;;;;;;;34.88;20.17;;;11.90;99.90;;;;;;5073914;28;20035;-68
2022/11/15 02:10:04;;;;;;;30.35;19.25;;;12.10;99.90;;;;;;5076864;28;20063;-68
2022/11/15 02:12:49;;;;;;;31.05;18.15;;;12.00;99.90;;;;;;5076062;28;20052;-68
2022/11/15 02:15:41;;;;;;;29.10;20.08;;;12.00;99.90;;;;;;5076163;28;20151;-69
2022/11/15 02:18:41;;;;;;;34.90;19.55;;;12.00;99.90;;;;;;5076405;28;20499;-68
2022/11/15 02:21:48;;;;;;;32.17;18.98;;;11.90;99.90;;;;;;5075961;28;20046;-68
2022/11/15 02:25:10;;;;;;;27.75;18.80;;;12.00;99.90;;;;;;5076328;28;20039;-68
2022/11/15 02:28:39;;;;;;;28.23;17.58;;;12.00;99.90;;;;;;5076109;28;20044;-68
2022/11/15 02:31:51;;;;;;;30.02;17.38;;;11.90;99.90;;;;;;5075908;28;20035;-68
2022/11/15 02:34:52;;;;;;;29.08;18.95;;;12.00;99.90;;;;;;5075994;28;20124;-68
2022/11/15 02:37:49;;;;;;;29.77;17.15;;;12.00;99.90;;;;;;5075764;28;20443;-68
2022/11/15 02:40:45;;;;;;;28.75;16.08;;;11.90;99.90;;;;;;5075838;28;20117;-69
2022/11/15 02:43:58;;;;;;;25.80;17.10;;;11.90;99.90;;;;;;5075765;28;20060;-68
2022/11/15 02:47:15;;;;;;;26.73;17.02;;;12.00;99.90;;;;;;5075383;28;20120;-68
2022/11/15 02:50:07;;;;;;;27.45;17.20;;;12.00;99.90;;;;;;5075768;28;20122;-69
2022/11/15 02:52:54;;;;;;;33.05;17.05;;;12.00;99.90;;;;;;5075765;28;20125;-68
2022/11/15 02:55:46;;;;;;;25.80;15.65;;;12.10;99.90;;;;;;5075488;28;20042;-69
2022/11/15 02:58:56;;;;;;;26.60;15.75;;;11.90;99.90;;;;;;5074444;28;20186;-70
2022/11/15 03:02:15;;;;;;;35.72;16.42;;;12.00;99.90;;;;;;5075278;28;20503;-69
2022/11/15 03:05:23;;;;;;;31.50;17.63;;;12.00;99.90;;;;;;5074910;28;20059;-71
2022/11/15 03:08:17;;;;;;;31.20;16.70;;;12.20;99.90;;;;;;5075406;28;20035;-71
2022/11/15 03:11:07;;;;;;;33.60;17.30;;;12.10;99.90;;;;;;5074118;28;20038;-71
2022/11/15 03:14:13;;;;;;;33.60;17.60;;;12.20;99.90;;;;;;5073902;28;20075;-71
2022/11/15 03:17:16;;;;;;;29.10;19.08;;;12.20;99.90;;;;;;5074931;28;20114;-71
2022/11/15 03:20:06;;;;;;;29.98;16.73;;;12.40;99.90;;;;;;5065841;28;20044;-71
2022/11/15 03:22:52;;;;;;;26.70;16.25;;;12.40;99.90;;;;;;5070710;28;20036;-71
2022/11/15 03:25:45;;;;;;;29.15;16.35;;;12.30;99.90;;;;;;5065612;28;20043;-71
2022/11/15 03:28:38;;;;;;;22.00;14.52;;;12.20;99.90;;;;;;5066603;28;20580;-71
2022/11/15 03:34:32;;;;;;;34.47;15.38;;;12.00;99.90;;;;;;5074937;28;20626;-69
2022/11/15 03:37:19;;;;;;;28.60;15.05;;;12.00;99.90;;;;;;5073704;28;20048;-69
2022/11/15 03:40:05;;;;;;;23.35;13.70;;;12.00;99.90;;;;;;5043015;28;20153;-71
2022/11/15 03:43:06;;;;;;;30.77;14.68;;;12.00;99.90;;;;;;5057822;28;20044;-71
2022/11/15 03:45:58;;;;;;;23.83;13.00;;;11.90;99.90;;;;;;5074360;28;20035;-71
2022/11/15 03:48:49;;;;;;;21.08;14.07;;;11.80;99.90;;;;;;5074585;28;20094;-71
2022/11/15 03:51:34;;;;;;;26.13;14.25;;;12.00;99.90;;;;;;5074724;28;20544;-71
2022/11/15 03:54:18;;;;;;;25.88;14.50;;;12.00;99.90;;;;;;5068222;28;20047;-71
2022/11/15 03:57:02;;;;;;;25.95;13.80;;;12.00;99.90;;;;;;5062388;28;20109;-71
2022/11/15 03:59:47;;;;;;;18.52;11.60;;;11.90;99.90;;;;;;5074140;28;20101;-71
2022/11/15 04:02:31;;;;;;;24.90;13.38;;;11.90;99.90;;;;;;5074449;28;20044;-71
2022/11/15 04:05:15;;;;;;;23.40;11.57;;;11.80;99.90;;;;;;5073437;28;20094;-70
2022/11/15 04:07:59;;;;;;;24.90;12.15;;;11.80;99.90;;;;;;5074286;28;20052;-68
2022/11/15 04:10:43;;;;;;;25.33;12.05;;;11.80;99.90;;;;;;5074301;28;20051;-71
2022/11/15 04:13:27;;;;;;;19.55;11.07;;;11.70;99.90;;;;;;5073853;28;20059;-68
2022/11/15 04:16:12;;;;;;;21.60;11.77;;;11.70;99.90;;;;;;5074096;28;20101;-72
2022/11/15 04:25:12;;;;;;;23.92;11.20;;;11.60;99.90;;;;;;5086933;28;20098;-71
2022/11/15 04:27:56;;;;;;;21.45;10.75;;;11.70;99.90;;;;;;5073668;28;20039;-71
2022/11/15 04:30:41;;;;;;;21.27;11.18;;;11.70;99.90;;;;;;5057806;28;20086;-71
2022/11/15 04:33:25;;;;;;;21.23;12.02;;;11.60;99.90;;;;;;5073480;28;20685;-71
2022/11/15 04:39:12;;;;;;;20.65;10.70;;;11.70;99.90;;;;;;5073119;28;20035;-71
2022/11/15 04:41:56;;;;;;;23.88;10.75;;;11.70;99.90;;;;;;5073883;28;20043;-72
2022/11/15 04:44:40;;;;;;;22.00;10.00;;;11.70;99.90;;;;;;5073991;28;20120;-68
2022/11/15 04:47:24;;;;;;;20.45;10.30;;;11.60;99.90;;;;;;5073703;28;20500;-68
2022/11/15 04:50:12;;;;;;;18.45;8.93;;;11.50;99.90;;;;;;5073172;28;20085;-68
2022/11/15 04:52:56;;;;;;;26.42;10.43;;;11.70;99.90;;;;;;5072891;28;20051;-69
2022/11/15 04:55:44;;;;;;;21.63;10.63;;;11.50;99.90;;;;;;5072942;28;20093;-68
2022/11/15 04:58:28;;;;;;;19.33;8.88;;;11.70;99.90;;;;;;5073432;28;20397;-70
2022/11/15 05:01:14;;;;;;;20.90;10.35;;;11.60;99.90;;;;;;5073135;28;20039;-71
2022/11/15 05:07:01;;;;;;;20.83;9.50;;;11.50;99.90;;;;;;5072974;28;20040;-71
2022/11/15 05:09:46;;;;;;;20.30;9.25;;;11.50;99.90;;;;;;5073198;28;20401;-70
2022/11/15 05:12:30;;;;;;;17.38;9.43;;;11.50;99.90;;;;;;5072864;28;20092;-71
2022/11/15 05:15:14;;;;;;;19.98;10.60;;;11.40;99.90;;;;;;5072902;28;20043;-70
2022/11/15 05:18:00;;;;;;;20.45;10.15;;;11.30;99.90;;;;;;5073131;28;20056;-71
2022/11/15 05:20:44;;;;;;;17.75;9.50;;;11.20;99.90;;;;;;5072848;28;20043;-71
2022/11/15 05:23:28;;;;;;;17.83;8.95;;;11.30;99.90;;;;;;5072936;28;20396;-70
2022/11/15 05:26:12;;;;;;;14.43;8.48;;;11.30;99.90;;;;;;5072756;28;20097;-71
2022/11/15 05:28:58;;;;;;;19.05;8.27;;;11.30;99.90;;;;;;5069390;28;20508;-69
2022/11/15 05:31:43;;;;;;;19.35;8.85;;;11.20;99.90;;;;;;5065145;28;20027;-71
2022/11/15 05:34:27;;;;;;;16.48;8.13;;;11.10;99.90;;;;;;5072612;28;20044;-70
2022/11/15 05:37:12;;;;;;;13.15;7.93;;;11.10;99.90;;;;;;5072086;28;20050;-71
2022/11/15 05:39:56;;;;;;;14.43;7.57;;;11.10;99.90;;;;;;5072612;28;20043;-69
2022/11/15 05:42:40;;;;;;;15.30;7.25;;;11.00;99.90;;;;;;5071990;28;20124;-71
2022/11/15 05:45:24;;;;;;;23.80;8.25;;;11.00;99.90;;;;;;5072443;28;20446;-71
2022/11/15 05:48:10;;;;;;;13.52;7.18;;;10.90;99.90;;;;;;5072790;28;20519;-71
2022/11/15 05:50:55;;;;;;;13.63;6.82;;;10.90;99.90;;;;;;5072018;28;20044;-71
2022/11/15 05:53:40;;;;;;;16.58;7.30;;;10.90;99.90;;;;;;5072310;28;20611;-71
2022/11/15 05:56:25;;;;;;;15.70;7.47;;;10.90;99.90;;;;;;5071951;28;20503;-71
2022/11/15 05:59:11;;;;;;;16.13;8.15;;;10.80;99.90;;;;;;5071147;28;20120;-71
2022/11/15 06:01:55;;;;;;;14.52;9.25;;;10.70;99.90;;;;;;5072702;28;20044;-71
2022/11/15 06:04:39;;;;;;;20.15;9.25;;;10.70;99.90;;;;;;5072249;28;20123;-70
2022/11/15 06:07:23;;;;;;;22.45;8.23;;;10.60;99.90;;;;;;5072618;28;20400;-70
2022/11/15 06:10:08;;;;;;;18.25;7.97;;;10.60;99.90;;;;;;5049138;28;20044;-71
2022/11/15 06:13:00;;;;;;;17.80;8.20;;;10.70;99.90;;;;;;5072387;28;20079;-71
2022/11/15 06:15:44;;;;;;;16.55;7.80;;;10.60;99.90;;;;;;5072251;28;20040;-71
2022/11/15 06:18:31;;;;;;;15.95;7.57;;;10.60;99.90;;;;;;5072507;28;20419;-70
2022/11/15 06:21:15;;;;;;;22.23;7.80;;;10.60;99.90;;;;;;5071981;28;20090;-69
2022/11/15 06:23:59;;;;;;;17.15;5.97;;;10.60;99.90;;;;;;5072385;28;20040;-70
2022/11/15 06:26:43;;;;;;;14.65;6.15;;;10.60;99.90;;;;;;5072064;28;20405;-69
2022/11/15 06:29:27;;;;;;;19.65;6.38;;;10.60;99.90;;;;;;5039829;28;20044;-70
2022/11/15 06:32:11;;;;;;;16.13;6.03;;;10.50;99.90;;;;;;5068022;28;20044;-70
2022/11/15 06:34:55;;;;;;;11.82;5.65;;;10.50;99.90;;;;;;5072067;28;20052;-70
2022/11/15 06:37:40;;;;;;;9.93;5.65;;;10.40;99.90;;;;;;5071961;28;20075;-69
2022/11/15 06:40:25;;;;;;;16.33;5.22;;;10.30;99.90;;;;;;5072446;28;20618;-70
2022/11/15 06:43:09;;;;;;;15.48;5.65;;;10.30;99.90;;;;;;5072060;28;20407;-70
2022/11/15 06:45:53;;;;;;;11.30;4.93;;;10.40;99.90;;;;;;5071578;28;20059;-70
2022/11/15 06:48:37;;;;;;;16.98;5.30;;;10.30;99.90;;;;;;5071877;28;20519;-71
2022/11/15 06:51:21;;;;;;;13.00;6.05;;;10.20;99.90;;;;;;5071949;28;20055;-71
2022/11/15 06:54:05;;;;;;;14.82;5.38;;;10.20;99.90;;;;;;5073002;28;20566;-71
2022/11/15 06:56:50;;;;;;;14.32;5.20;;;10.20;99.90;;;;;;5074932;28;20040;-68
2022/11/15 06:59:34;;;;;;;19.15;5.80;;;10.20;99.90;;;;;;5074791;28;20082;-70
2022/11/15 07:02:18;;;;;;;12.05;5.50;;;10.10;99.90;;;;;;5074994;28;20039;-69
2022/11/15 07:05:02;;;;;;;16.33;5.07;;;10.10;99.90;;;;;;5075217;28;20082;-70
2022/11/15 07:07:52;;;;;;;11.70;5.55;;;10.10;99.90;;;;;;5043270;28;20573;-68
2022/11/15 07:10:36;;;;;;;14.25;4.97;;;10.10;99.90;;;;;;5066677;28;20416;-68
2022/11/15 07:13:23;;;;;;;15.75;5.68;;;10.10;99.90;;;;;;5059654;28;20052;-67
2022/11/15 07:16:10;;;;;;;15.70;5.25;;;10.00;99.90;;;;;;5056077;28;20128;-69
2022/11/15 07:18:54;;;;;;;15.10;5.45;;;10.00;99.90;;;;;;5048597;28;20098;-68
2022/11/15 07:21:38;;;;;;;14.05;5.93;;;10.00;99.90;;;;;;5053987;28;20559;-69
2022/11/15 07:24:23;;;;;;;11.75;5.70;;;10.10;99.90;;;;;;5061610;28;20036;-69
2022/11/15 07:27:07;;;;;;;23.13;6.43;;;10.10;99.90;;;;;;5047937;28;20566;-68
2022/11/15 07:29:51;;;;;;;14.77;5.72;;;10.00;99.90;;;;;;5047659;28;20187;-71
2022/11/15 07:32:35;;;;;;;12.07;5.82;;;9.90;99.90;;;;;;5044016;28;20048;-69
2022/11/15 07:35:19;;;;;;;15.05;5.70;;;9.90;99.90;;;;;;5061200;28;20047;-67
2022/11/15 07:38:04;;;;;;;17.48;7.45;;;10.00;99.90;;;;;;5051830;28;20455;-66
2022/11/15 07:40:57;;;;;;;14.30;6.70;;;10.00;99.90;;;;;;5052806;28;20142;-68
2022/11/15 07:43:41;;;;;;;15.43;6.40;;;10.00;99.90;;;;;;5054526;28;20511;-68
2022/11/15 07:46:25;;;;;;;17.70;7.07;;;10.10;99.90;;;;;;5066371;28;20078;-68
2022/11/15 07:49:09;;;;;;;12.57;7.50;;;10.10;99.90;;;;;;5063590;28;20393;-68
2022/11/15 07:51:53;;;;;;;16.58;7.20;;;10.20;99.90;;;;;;5050606;28;20048;-68
2022/11/15 07:54:37;;;;;;;15.35;6.63;;;10.20;99.90;;;;;;5056763;28;20035;-68
2022/11/15 07:57:22;;;;;;;18.48;7.00;;;10.10;99.90;;;;;;5064572;28;20511;-68
2022/11/15 08:00:07;;;;;;;18.45;6.00;;;10.20;99.90;;;;;;5059360;28;20090;-68
2022/11/15 08:02:51;;;;;;;17.83;6.88;;;10.20;99.90;;;;;;5050819;28;20105;-69
2022/11/15 08:05:36;;;;;;;16.08;5.70;;;10.20;99.90;;;;;;5042402;28;20044;-70
2022/11/15 08:08:20;;;;;;;14.63;5.70;;;10.30;99.90;;;;;;5061074;28;20043;-68
2022/11/15 08:11:05;;;;;;;9.88;5.47;;;10.30;99.90;;;;;;5055320;28;20032;-68
2022/11/15 08:13:49;;;;;;;10.57;4.88;;;10.40;99.90;;;;;;5057722;28;20056;-68
2022/11/15 08:16:33;;;;;;;11.10;5.35;;;10.50;99.90;;;;;;5038972;28;20060;-71
2022/11/15 08:19:17;;;;;;;12.60;5.47;;;10.50;99.90;;;;;;5062009;28;20086;-71
2022/11/15 08:22:01;;;;;;;14.70;6.07;;;10.60;99.90;;;;;;5051968;28;20035;-71
2022/11/15 08:24:45;;;;;;;16.63;5.40;;;10.70;99.90;;;;;;5054404;28;20032;-70
2022/11/15 08:27:30;;;;;;;14.90;4.70;;;10.90;99.90;;;;;;5051049;28;20055;-69
2022/11/15 08:30:15;;;;;;;11.80;4.60;;;11.00;99.90;;;;;;5072482;28;20059;-70
2022/11/15 08:33:00;;;;;;;16.70;4.53;;;11.00;99.90;;;;;;5058822;28;20083;-71
2022/11/15 08:35:44;;;;;;;9.77;4.70;;;10.90;99.90;;;;;;5052718;28;20400;-69
2022/11/15 08:38:30;;;;;;;10.07;4.65;;;11.00;99.90;;;;;;5066841;28;20071;-68
2022/11/15 08:41:24;;;;;;;11.90;4.70;;;10.90;99.90;;;;;;5059483;28;20063;-68
2022/11/15 08:44:08;;;;;;;11.00;4.43;;;11.00;99.90;;;;;;5072424;28;20538;-74
2022/11/15 08:46:52;;;;;;;15.38;3.22;;;11.10;99.90;;;;;;5054818;28;20035;-74
2022/11/15 08:49:36;;;;;;;12.25;3.50;;;11.00;99.90;;;;;;5072226;28;20051;-73
2022/11/15 08:52:21;;;;;;;6.88;3.33;;;11.00;99.90;;;;;;5067236;28;20048;-73
2022/11/15 08:55:06;;;;;;;11.30;4.15;;;11.00;99.90;;;;;;5071646;28;20120;-72
2022/11/15 08:57:50;;;;;;;9.93;3.45;;;11.20;99.90;;;;;;5072210;28;20399;-73
2022/11/15 09:00:34;;;;;;;14.05;3.42;;;11.30;99.90;;;;;;5069680;28;20435;-73
2022/11/15 09:03:18;;;;;;;10.15;3.20;;;11.40;99.90;;;;;;5056821;28;20082;-73
2022/11/15 09:06:02;;;;;;;13.13;3.40;;;11.40;99.90;;;;;;5053824;28;20508;-73
2022/11/15 09:08:46;;;;;;;10.95;2.92;;;11.40;99.90;;;;;;5053114;28;20044;-75
2022/11/15 09:11:30;;;;;;;10.60;3.28;;;11.50;99.90;;;;;;5059882;28;20040;-73
2022/11/15 09:14:15;;;;;;;15.50;3.10;;;11.50;99.90;;;;;;5068351;28;20522;-73
2022/11/15 09:16:59;;;;;;;9.38;2.90;;;11.90;99.90;;;;;;5047578;28;20035;-73
2022/11/15 09:19:44;;;;;;;9.07;3.10;;;11.90;99.90;;;;;;5071009;28;20051;-73
2022/11/15 09:22:28;;;;;;;7.28;2.55;;;11.90;99.90;;;;;;5052231;28;20051;-73
2022/11/15 09:25:12;;;;;;;13.52;3.03;;;11.90;99.90;;;;;;5070796;28;20036;-71
2022/11/15 09:27:57;;;;;;;12.18;2.97;;;12.10;99.90;;;;;;5071618;28;20161;-74
2022/11/15 09:30:41;;;;;;;7.45;2.30;;;11.90;99.90;;;;;;5067582;28;20622;-71
2022/11/15 09:33:26;;;;;;;19.05;2.60;;;12.00;99.90;;;;;;5064234;28;20070;-74
2022/11/15 09:36:11;;;;;;;7.00;2.33;;;11.90;99.90;;;;;;5067217;28;20102;-73
2022/11/15 09:38:57;;;;;;;10.27;2.55;;;11.80;99.90;;;;;;5071741;28;20129;-74
2022/11/15 09:41:48;;;;;;;6.05;2.15;;;11.70;99.90;;;;;;5071756;28;20040;-73
2022/11/15 09:44:37;;;;;;;10.77;1.95;;;11.70;99.90;;;;;;5071393;28;20046;-73
2022/11/15 09:48:00;;;;;;;6.72;2.28;;;11.70;99.90;;;;;;5071632;28;20120;-74
2022/11/15 09:51:01;;;;;;;14.48;2.58;;;11.80;99.90;;;;;;5053055;28;20044;-74
2022/11/15 09:53:40;;;;;;;6.50;1.67;;;11.90;99.90;;;;;;5070258;28;20067;-74
2022/11/15 09:56:22;;;;;;;8.10;1.88;;;12.00;99.90;;;;;;5052679;28;20033;-74
2022/11/15 09:59:12;;;;;;;13.03;2.63;;;12.40;99.90;;;;;;5071546;28;20445;-73
2022/11/15 10:01:47;;;;;;;10.48;1.73;;;13.00;99.90;;;;;;5032015;28;20515;-74
2022/11/15 10:04:14;;;;;;;7.57;2.28;;;13.30;99.90;;;;;;5034624;28;20031;-78
2022/11/15 10:06:50;;;;;;;10.68;2.20;;;13.40;99.90;;;;;;5052217;28;20025;-78
2022/11/15 10:09:22;;;;;;;7.53;1.83;;;13.50;99.90;;;;;;5055668;28;20025;-78
2022/11/15 10:11:48;;;;;;;6.25;1.88;;;13.40;99.90;;;;;;5040798;28;20045;-78
2022/11/15 10:14:19;;;;;;;13.18;2.80;;;13.40;99.90;;;;;;5051802;28;20025;-77
2022/11/15 10:17:02;;;;;;;10.65;2.30;;;13.10;99.90;;;;;;5053161;28;20040;-78
2022/11/15 10:20:10;;;;;;;12.93;2.47;;;13.20;99.90;;;;;;5059702;28;20366;-77
2022/11/15 10:22:47;;;;;;;5.65;1.90;;;13.30;99.90;;;;;;5050084;28;20039;-77
2022/11/15 10:25:16;;;;;;;8.45;1.83;;;13.40;99.90;;;;;;5033826;28;20017;-77
2022/11/15 10:27:44;;;;;;;8.23;1.88;;;13.40;99.90;;;;;;5059829;28;20103;-77
2022/11/15 10:30:17;;;;;;;9.38;2.00;;;13.70;99.90;;;;;;5075706;28;20029;-77
2022/11/15 10:32:46;;;;;;;11.00;2.00;;;13.90;99.90;;;;;;5055272;28;20129;-74
2022/11/15 10:35:29;;;;;;;12.98;1.90;;;13.90;99.90;;;;;;5073709;28;20113;-75
2022/11/15 10:38:06;;;;;;;8.50;2.22;;;14.10;99.90;;;;;;5066290;28;20044;-73
2022/11/15 10:40:32;;;;;;;11.05;2.08;;;14.10;99.90;;;;;;5066076;28;20082;-72
2022/11/15 10:43:26;;;;;;;8.60;1.50;;;14.00;99.90;;;;;;5066449;28;20032;-71
2022/11/15 10:45:52;;;;;;;13.05;1.55;;;14.40;99.90;;;;;;5073924;28;20481;-72
2022/11/15 10:48:18;;;;;;;7.00;1.50;;;14.60;99.90;;;;;;5074089;28;20051;-71
2022/11/15 10:50:46;;;;;;;8.57;2.25;;;14.50;99.90;;;;;;5075389;28;20024;-71
2022/11/15 10:53:27;;;;;;;14.23;2.25;;;14.70;99.90;;;;;;5074386;28;20036;-72
2022/11/15 10:55:56;;;;;;;5.50;1.63;;;14.80;99.90;;;;;;5075140;28;20029;-71
2022/11/15 10:58:33;;;;;;;9.98;1.92;;;14.80;99.90;;;;;;5075458;28;20035;-74
2022/11/15 11:01:16;;;;;;;11.18;1.83;;;15.00;99.90;;;;;;5075627;28;20099;-72
2022/11/15 11:03:44;;;;;;;11.60;2.25;;;14.70;99.90;;;;;;5073768;28;20036;-70
2022/11/15 11:06:12;;;;;;;10.68;1.85;;;14.70;99.90;;;;;;5074201;28;20056;-71
2022/11/15 11:08:38;;;;;;;9.15;1.77;;;14.70;99.90;;;;;;5063398;28;20032;-72
2022/11/15 11:11:05;;;;;;;14.35;2.03;;;14.70;99.90;;;;;;5054825;28;20468;-72
2022/11/15 11:13:39;;;;;;;14.25;1.70;;;14.40;99.90;;;;;;5059688;28;20078;-71
2022/11/15 11:16:14;;;;;;;6.95;1.73;;;14.40;99.90;;;;;;5052134;28;20020;-71
2022/11/15 11:18:42;;;;;;;13.05;1.92;;;14.10;99.90;;;;;;5055211;28;20025;-71
2022/11/15 11:21:18;;;;;;;14.38;1.85;;;14.10;99.90;;;;;;5061302;28;20099;-72
2022/11/15 11:23:47;;;;;;;11.93;2.22;;;14.00;99.90;;;;;;5044318;28;20031;-70
2022/11/15 11:26:21;;;;;;;10.45;1.60;;;13.80;99.90;;;;;;5050243;28;20022;-71
2022/11/15 11:29:00;;;;;;;10.25;1.98;;;13.90;99.90;;;;;;5070376;28;20489;-70
2022/11/15 11:31:39;;;;;;;13.68;2.20;;;14.30;99.90;;;;;;5073404;28;20041;-73
2022/11/15 11:34:36;;;;;;;14.05;2.35;;;14.50;99.90;;;;;;5072816;28;20044;-74
2022/11/15 11:37:14;;;;;;;10.63;1.33;;;14.50;99.90;;;;;;5073467;28;20044;-74
2022/11/15 11:39:56;;;;;;;4.97;1.52;;;14.40;99.90;;;;;;5072189;28;20032;-72
2022/11/15 11:42:36;;;;;;;9.75;1.75;;;14.20;99.90;;;;;;5056775;28;20463;-72
2022/11/15 11:45:24;;;;;;;11.85;2.40;;;14.40;99.90;;;;;;5074719;28;20021;-73
2022/11/15 11:48:03;;;;;;;7.28;1.80;;;14.50;99.90;;;;;;5074224;28;20834;-74
2022/11/15 11:50:31;;;;;;;18.15;2.38;;;14.00;99.90;;;;;;5073434;28;20028;-74
2022/11/15 11:52:58;;;;;;;8.43;1.70;;;13.80;99.90;;;;;;5072852;28;20665;-74
2022/11/15 11:55:52;;;;;;;8.57;2.03;;;13.80;99.90;;;;;;5073238;28;20074;-73
2022/11/15 11:58:37;;;;;;;7.30;1.52;;;13.90;99.90;;;;;;5073922;28;20047;-74
2022/11/15 12:01:14;;;;;;;4.70;1.60;;;14.10;99.90;;;;;;5072806;28;20025;-75
2022/11/15 12:03:43;;;;;;;8.38;2.15;;;14.00;99.90;;;;;;5073883;28;20063;-74
2022/11/15 12:06:21;;;;;;;7.60;1.90;;;14.10;99.90;;;;;;5074161;28;20035;-74
2022/11/15 12:09:12;;;;;;;8.95;1.83;;;13.80;99.90;;;;;;5073807;28;20025;-73
2022/11/15 12:11:55;;;;;;;17.98;1.92;;;13.70;99.90;;;;;;5074045;28;20036;-73
2022/11/15 12:14:41;;;;;;;9.88;2.53;;;13.80;99.90;;;;;;5072770;28;20122;-74
2022/11/15 12:17:10;;;;;;;8.82;1.75;;;13.70;99.90;;;;;;5074119;28;20028;-74
2022/11/15 12:19:37;;;;;;;7.22;1.60;;;13.60;99.90;;;;;;5073684;28;20043;-74
2022/11/15 12:22:10;;;;;;;10.13;2.50;;;13.50;99.90;;;;;;5073649;28;20158;-73
2022/11/15 12:24:51;;;;;;;4.00;1.42;;;13.40;99.90;;;;;;5072569;28;20072;-74
2022/11/15 12:27:38;;;;;;;8.52;1.35;;;13.30;99.90;;;;;;5072631;28;20032;-73
2022/11/15 12:30:16;;;;;;;6.93;1.80;;;13.50;99.90;;;;;;5073597;28;20025;-74
2022/11/15 12:32:59;;;;;;;8.60;2.40;;;13.50;99.90;;;;;;5073633;28;20044;-74
2022/11/15 12:35:42;;;;;;;8.73;2.45;;;13.50;99.90;;;;;;5072127;28;20032;-74
2022/11/15 12:38:12;;;;;;;10.50;1.60;;;13.50;99.90;;;;;;5072094;28;20498;-74
2022/11/15 12:41:17;;;;;;;9.40;1.63;;;13.40;99.90;;;;;;5073294;28;20087;-74
2022/11/15 12:43:45;;;;;;;10.80;1.70;;;13.40;99.90;;;;;;5073568;28;20055;-74
2022/11/15 12:46:18;;;;;;;12.75;1.77;;;13.40;99.90;;;;;;5072016;28;20377;-74
2022/11/15 12:48:48;;;;;;;11.68;2.05;;;13.40;99.90;;;;;;5073404;28;20028;-74
2022/11/15 12:51:13;;;;;;;8.75;1.92;;;13.50;99.90;;;;;;5072160;28;20025;-74
2022/11/15 12:53:39;;;;;;;15.35;1.85;;;13.40;99.90;;;;;;5073154;28;20115;-74
2022/11/15 12:56:17;;;;;;;6.28;1.80;;;13.40;99.90;;;;;;5073186;28;20481;-74
2022/11/15 12:58:48;;;;;;;13.80;1.73;;;13.40;99.90;;;;;;5050440;28;20477;-74
2022/11/15 13:01:34;;;;;;;13.97;1.93;;;13.40;99.90;;;;;;5070176;28;20016;-74
2022/11/15 13:04:19;;;;;;;8.18;1.92;;;13.50;99.90;;;;;;5071768;28;20039;-74
2022/11/15 13:06:55;;;;;;;11.73;2.33;;;13.50;99.90;;;;;;5072929;28;20036;-74
2022/11/15 13:09:36;;;;;;;11.25;2.00;;;13.50;99.90;;;;;;5072955;28;20040;-74
2022/11/15 13:12:27;;;;;;;10.23;1.55;;;13.60;99.90;;;;;;5071707;28;20505;-74
2022/11/15 13:14:58;;;;;;;8.18;1.88;;;13.60;99.90;;;;;;5071299;28;20025;-74
2022/11/15 13:17:36;;;;;;;13.38;2.22;;;13.60;99.90;;;;;;5073545;28;20081;-74
2022/11/15 13:20:07;;;;;;;9.30;2.13;;;13.70;99.90;;;;;;5072500;28;20034;-74
2022/11/15 13:22:58;;;;;;;;;;;13.70;99.90;;;;;;5073319;28;20035;-74
2022/11/15 13:25:45;;;;;;;7.95;1.80;;;13.70;99.90;;;;;;5071561;28;20245;-74
2022/11/15 13:28:13;;;;;;;9.70;2.20;;;13.70;99.90;;;;;;5060838;28;20123;-74
2022/11/15 13:30:50;;;;;;;17.88;1.73;;;13.70;99.90;;;;;;5072451;28;20050;-74
2022/11/15 13:33:39;;;;;;;8.63;1.90;;;13.70;99.90;;;;;;5072930;28;20076;-75
2022/11/15 13:36:15;;;;;;;7.20;2.10;;;13.70;99.90;;;;;;5072255;28;20084;-74
2022/11/15 13:38:41;;;;;;;15.00;2.67;;;13.70;99.90;;;;;;5072649;28;20079;-74
2022/11/15 13:41:16;;;;;;;8.38;1.77;;;13.70;99.90;;;;;;5071347;28;20023;-74
2022/11/15 13:43:42;;;;;;;9.48;1.52;;;13.80;99.90;;;;;;5072605;28;20028;-74
2022/11/15 13:46:18;;;;;;;12.05;2.03;;;13.80;99.90;;;;;;5070961;28;20495;-74
2022/11/15 13:48:46;;;;;;;8.85;1.73;;;13.80;99.90;;;;;;5072232;28;20448;-73
2022/11/15 13:51:28;;;;;;;13.57;2.42;;;13.70;99.90;;;;;;5071932;28;20016;-73
2022/11/15 13:54:01;;;;;;;9.98;2.15;;;13.70;99.90;;;;;;5072468;28;20423;-74
2022/11/15 13:56:28;;;;;;;7.53;1.70;;;13.70;99.90;;;;;;5071825;28;20031;-74
2022/11/15 13:58:54;;;;;;;4.80;1.23;;;13.70;99.90;;;;;;5072376;28;20103;-74
2022/11/15 14:01:21;;;;;;;6.72;1.98;;;13.70;99.90;;;;;;5072233;28;20024;-74
2022/11/15 14:03:57;;;;;;;5.88;1.65;;;13.60;99.90;;;;;;5074530;28;20028;-74
2022/11/15 14:06:29;;;;;;;6.25;1.40;;;13.70;99.90;;;;;;5076397;28;20381;-74
2022/11/15 14:09:09;;;;;;;9.75;1.42;;;13.60;99.90;;;;;;5076494;28;20032;-74
2022/11/15 14:11:35;;;;;;;5.70;1.30;;;13.50;99.90;;;;;;5074687;28;20091;-74
2022/11/15 14:14:12;;;;;;;8.82;1.20;;;13.50;99.90;;;;;;5074970;28;20476;-74